Terminal Aerodrome Forecast
Issued by NWS St Louis, MO

Home | Current Version | Previous Version | Text Only | Print | Product List | Glossary On
Versions: 1 2 3 4 5 6 7 8 9 10 11 12 13 14 15 16 17 18 19 20 21 22 23 24 25 26 27 28
000
FTUS43 KLSX 300520
TAFCOU
TAF
KCOU 300520Z 3006/3106 12009KT P6SM VCTS SCT025CB BKN060
     FM300800 15005KT P6SM VCSH OVC025
     FM301700 23008KT P6SM SHRA VCTS OVC050CB
     FM310000 26007KT 3SM -SHRA BKN015
     FM310200 31008KT P6SM VCSH BKN008=

USA.gov is the U.S. government's official web portal to all federal, state and local government web resources and services.